sensor_id;sensor_type;location;lat;lon;timestamp;P1;durP1;ratioP1;P2;durP2;ratioP2
51228;SDS011;37304;52.216;6.874;2022-07-05T00:01:12;6.15;;;2.50;;
51228;SDS011;37304;52.216;6.874;2022-07-05T00:06:15;2.80;;;2.35;;
51228;SDS011;37304;52.216;6.874;2022-07-05T00:11:15;4.50;;;2.25;;
51228;SDS011;37304;52.216;6.874;2022-07-05T00:16:16;5.28;;;2.60;;
51228;SDS011;37304;52.216;6.874;2022-07-05T00:21:16;3.17;;;2.17;;
51228;SDS011;37304;52.216;6.874;2022-07-05T00:26:17;4.70;;;2.60;;
51228;SDS011;37304;52.216;6.874;2022-07-05T00:31:17;4.15;;;2.60;;
51228;SDS011;37304;52.216;6.874;2022-07-05T00:36:17;5.03;;;2.40;;
51228;SDS011;37304;52.216;6.874;2022-07-05T00:41:18;3.88;;;2.47;;
51228;SDS011;37304;52.216;6.874;2022-07-05T00:46:18;3.92;;;2.85;;
51228;SDS011;37304;52.216;6.874;2022-07-05T00:51:19;3.58;;;2.75;;
51228;SDS011;37304;52.216;6.874;2022-07-05T00:56:21;5.07;;;3.13;;
51228;SDS011;37304;52.216;6.874;2022-07-05T01:01:24;4.50;;;2.80;;
51228;SDS011;37304;52.216;6.874;2022-07-05T01:06:26;4.88;;;2.58;;
51228;SDS011;37304;52.216;6.874;2022-07-05T01:11:27;3.50;;;2.53;;
51228;SDS011;37304;52.216;6.874;2022-07-05T01:16:28;4.85;;;3.00;;
51228;SDS011;37304;52.216;6.874;2022-07-05T01:21:29;5.53;;;3.47;;
51228;SDS011;37304;52.216;6.874;2022-07-05T01:26:31;5.63;;;3.72;;
51228;SDS011;37304;52.216;6.874;2022-07-05T01:31:32;7.07;;;3.92;;
51228;SDS011;37304;52.216;6.874;2022-07-05T01:36:36;4.93;;;3.60;;
51228;SDS011;37304;52.216;6.874;2022-07-05T01:41:36;6.22;;;4.10;;
51228;SDS011;37304;52.216;6.874;2022-07-05T01:46:37;4.18;;;3.78;;
51228;SDS011;37304;52.216;6.874;2022-07-05T01:51:41;5.88;;;3.80;;
51228;SDS011;37304;52.216;6.874;2022-07-05T01:56:49;5.55;;;4.63;;
51228;SDS011;37304;52.216;6.874;2022-07-05T02:01:54;8.70;;;4.55;;
51228;SDS011;37304;52.216;6.874;2022-07-05T02:06:54;5.75;;;4.50;;
51228;SDS011;37304;52.216;6.874;2022-07-05T02:11:55;5.90;;;4.45;;
51228;SDS011;37304;52.216;6.874;2022-07-05T02:16:55;6.43;;;4.80;;
51228;SDS011;37304;52.216;6.874;2022-07-05T02:21:56;6.30;;;5.10;;
51228;SDS011;37304;52.216;6.874;2022-07-05T02:26:56;6.88;;;4.75;;
51228;SDS011;37304;52.216;6.874;2022-07-05T02:31:57;9.05;;;5.20;;
51228;SDS011;37304;52.216;6.874;2022-07-05T02:36:57;6.38;;;4.75;;
51228;SDS011;37304;52.216;6.874;2022-07-05T02:41:58;6.50;;;5.05;;
51228;SDS011;37304;52.216;6.874;2022-07-05T02:46:58;5.85;;;4.95;;
51228;SDS011;37304;52.216;6.874;2022-07-05T02:51:58;8.15;;;5.28;;
51228;SDS011;37304;52.216;6.874;2022-07-05T02:56:59;5.68;;;5.10;;
51228;SDS011;37304;52.216;6.874;2022-07-05T03:01:59;5.70;;;5.10;;
51228;SDS011;37304;52.216;6.874;2022-07-05T03:07:00;6.40;;;5.38;;
51228;SDS011;37304;52.216;6.874;2022-07-05T03:12:00;7.05;;;6.05;;
51228;SDS011;37304;52.216;6.874;2022-07-05T03:17:00;5.97;;;5.38;;
51228;SDS011;37304;52.216;6.874;2022-07-05T03:22:01;7.43;;;5.75;;
51228;SDS011;37304;52.216;6.874;2022-07-05T03:27:01;7.55;;;5.93;;
51228;SDS011;37304;52.216;6.874;2022-07-05T03:32:02;7.50;;;5.80;;
51228;SDS011;37304;52.216;6.874;2022-07-05T03:37:02;8.43;;;5.93;;
51228;SDS011;37304;52.216;6.874;2022-07-05T03:42:03;6.72;;;5.05;;
51228;SDS011;37304;52.216;6.874;2022-07-05T03:47:04;7.78;;;6.32;;
51228;SDS011;37304;52.216;6.874;2022-07-05T03:52:04;7.13;;;5.50;;
51228;SDS011;37304;52.216;6.874;2022-07-05T03:57:05;6.78;;;5.43;;
51228;SDS011;37304;52.216;6.874;2022-07-05T04:02:05;9.30;;;5.93;;
51228;SDS011;37304;52.216;6.874;2022-07-05T04:07:05;9.27;;;6.07;;
51228;SDS011;37304;52.216;6.874;2022-07-05T04:12:06;9.80;;;6.25;;
51228;SDS011;37304;52.216;6.874;2022-07-05T04:17:07;10.00;;;5.57;;
51228;SDS011;37304;52.216;6.874;2022-07-05T04:22:07;7.68;;;5.15;;
51228;SDS011;37304;52.216;6.874;2022-07-05T04:27:07;9.43;;;6.30;;
51228;SDS011;37304;52.216;6.874;2022-07-05T04:32:08;6.82;;;5.78;;
51228;SDS011;37304;52.216;6.874;2022-07-05T04:37:08;9.70;;;5.72;;
51228;SDS011;37304;52.216;6.874;2022-07-05T04:42:08;7.07;;;5.43;;
51228;SDS011;37304;52.216;6.874;2022-07-05T04:47:09;10.50;;;5.78;;
51228;SDS011;37304;52.216;6.874;2022-07-05T04:52:09;7.47;;;5.57;;
51228;SDS011;37304;52.216;6.874;2022-07-05T04:57:10;5.63;;;5.03;;
51228;SDS011;37304;52.216;6.874;2022-07-05T05:02:10;9.93;;;5.38;;
51228;SDS011;37304;52.216;6.874;2022-07-05T05:07:10;6.50;;;5.07;;
51228;SDS011;37304;52.216;6.874;2022-07-05T05:12:11;6.72;;;5.10;;
51228;SDS011;37304;52.216;6.874;2022-07-05T05:17:11;6.03;;;4.70;;
51228;SDS011;37304;52.216;6.874;2022-07-05T05:22:11;5.40;;;4.43;;
51228;SDS011;37304;52.216;6.874;2022-07-05T05:27:12;5.43;;;4.50;;
51228;SDS011;37304;52.216;6.874;2022-07-05T05:32:12;5.53;;;4.47;;
51228;SDS011;37304;52.216;6.874;2022-07-05T05:37:13;5.97;;;4.90;;
51228;SDS011;37304;52.216;6.874;2022-07-05T05:42:13;7.57;;;4.38;;
51228;SDS011;37304;52.216;6.874;2022-07-05T05:47:13;7.57;;;4.70;;
51228;SDS011;37304;52.216;6.874;2022-07-05T05:52:14;6.75;;;4.35;;
51228;SDS011;37304;52.216;6.874;2022-07-05T05:57:14;6.65;;;4.15;;
51228;SDS011;37304;52.216;6.874;2022-07-05T06:02:14;4.87;;;4.20;;
51228;SDS011;37304;52.216;6.874;2022-07-05T06:07:15;6.32;;;3.90;;
51228;SDS011;37304;52.216;6.874;2022-07-05T06:12:15;7.75;;;4.70;;
51228;SDS011;37304;52.216;6.874;2022-07-05T06:17:15;7.33;;;4.00;;
51228;SDS011;37304;52.216;6.874;2022-07-05T06:22:16;6.32;;;4.72;;
51228;SDS011;37304;52.216;6.874;2022-07-05T06:27:16;9.85;;;4.80;;
51228;SDS011;37304;52.216;6.874;2022-07-05T06:32:16;6.60;;;4.45;;
51228;SDS011;37304;52.216;6.874;2022-07-05T06:37:17;6.43;;;4.50;;
51228;SDS011;37304;52.216;6.874;2022-07-05T06:42:17;8.50;;;4.18;;
51228;SDS011;37304;52.216;6.874;2022-07-05T06:47:17;7.77;;;4.70;;
51228;SDS011;37304;52.216;6.874;2022-07-05T06:52:17;9.40;;;3.90;;
51228;SDS011;37304;52.216;6.874;2022-07-05T06:57:18;5.77;;;3.80;;
51228;SDS011;37304;52.216;6.874;2022-07-05T07:02:20;6.15;;;3.85;;
51228;SDS011;37304;52.216;6.874;2022-07-05T07:07:21;5.47;;;3.78;;
51228;SDS011;37304;52.216;6.874;2022-07-05T07:12:40;6.22;;;3.05;;
51228;SDS011;37304;52.216;6.874;2022-07-05T07:17:40;3.75;;;3.15;;
51228;SDS011;37304;52.216;6.874;2022-07-05T07:22:40;3.15;;;2.85;;
51228;SDS011;37304;52.216;6.874;2022-07-05T07:27:45;5.68;;;2.50;;
51228;SDS011;37304;52.216;6.874;2022-07-05T07:32:49;4.05;;;2.72;;
51228;SDS011;37304;52.216;6.874;2022-07-05T07:37:50;4.50;;;2.20;;
51228;SDS011;37304;52.216;6.874;2022-07-05T07:42:50;4.18;;;2.10;;
51228;SDS011;37304;52.216;6.874;2022-07-05T07:47:50;3.77;;;2.00;;
51228;SDS011;37304;52.216;6.874;2022-07-05T07:52:51;5.85;;;2.15;;
51228;SDS011;37304;52.216;6.874;2022-07-05T07:57:51;4.07;;;2.55;;
51228;SDS011;37304;52.216;6.874;2022-07-05T08:02:52;3.50;;;2.00;;
51228;SDS011;37304;52.216;6.874;2022-07-05T08:07:53;3.40;;;2.30;;
51228;SDS011;37304;52.216;6.874;2022-07-05T08:12:53;5.60;;;2.22;;
51228;SDS011;37304;52.216;6.874;2022-07-05T08:17:55;2.88;;;1.75;;
51228;SDS011;37304;52.216;6.874;2022-07-05T08:23:14;3.15;;;1.67;;
51228;SDS011;37304;52.216;6.874;2022-07-05T08:28:14;2.95;;;1.60;;
51228;SDS011;37304;52.216;6.874;2022-07-05T08:33:15;2.97;;;2.00;;
51228;SDS011;37304;52.216;6.874;2022-07-05T08:38:15;5.25;;;1.83;;
51228;SDS011;37304;52.216;6.874;2022-07-05T08:43:16;2.13;;;1.60;;
51228;SDS011;37304;52.216;6.874;2022-07-05T08:48:19;1.85;;;1.30;;
51228;SDS011;37304;52.216;6.874;2022-07-05T08:53:20;2.25;;;1.25;;
51228;SDS011;37304;52.216;6.874;2022-07-05T08:58:21;2.80;;;1.50;;
51228;SDS011;37304;52.216;6.874;2022-07-05T09:03:21;3.03;;;1.60;;
51228;SDS011;37304;52.216;6.874;2022-07-05T09:08:26;2.20;;;1.10;;
51228;SDS011;37304;52.216;6.874;2022-07-05T09:13:32;3.30;;;1.40;;
51228;SDS011;37304;52.216;6.874;2022-07-05T09:18:41;1.88;;;1.15;;
51228;SDS011;37304;52.216;6.874;2022-07-05T09:23:55;1.65;;;1.38;;
51228;SDS011;37304;52.216;6.874;2022-07-05T09:28:57;3.90;;;0.90;;
51228;SDS011;37304;52.216;6.874;2022-07-05T09:34:05;2.15;;;1.05;;
51228;SDS011;37304;52.216;6.874;2022-07-05T09:39:07;3.75;;;1.73;;
51228;SDS011;37304;52.216;6.874;2022-07-05T09:44:08;1.53;;;1.00;;
51228;SDS011;37304;52.216;6.874;2022-07-05T09:49:08;1.42;;;0.70;;
51228;SDS011;37304;52.216;6.874;2022-07-05T09:54:09;2.80;;;1.00;;
51228;SDS011;37304;52.216;6.874;2022-07-05T09:59:16;2.25;;;0.93;;
51228;SDS011;37304;52.216;6.874;2022-07-05T10:04:19;2.15;;;0.85;;
51228;SDS011;37304;52.216;6.874;2022-07-05T10:09:19;3.08;;;1.17;;
51228;SDS011;37304;52.216;6.874;2022-07-05T10:14:21;1.85;;;1.15;;
51228;SDS011;37304;52.216;6.874;2022-07-05T10:19:21;2.50;;;1.40;;
51228;SDS011;37304;52.216;6.874;2022-07-05T10:24:26;3.65;;;1.48;;
51228;SDS011;37304;52.216;6.874;2022-07-05T10:29:32;1.70;;;1.20;;
51228;SDS011;37304;52.216;6.874;2022-07-05T10:34:35;1.05;;;0.95;;
51228;SDS011;37304;52.216;6.874;2022-07-05T10:39:37;1.80;;;1.17;;
51228;SDS011;37304;52.216;6.874;2022-07-05T10:44:37;4.40;;;1.40;;
51228;SDS011;37304;52.216;6.874;2022-07-05T10:49:38;1.70;;;1.00;;
51228;SDS011;37304;52.216;6.874;2022-07-05T10:55:23;0.95;;;0.90;;
51228;SDS011;37304;52.216;6.874;2022-07-05T11:00:18;2.58;;;0.95;;
51228;SDS011;37304;52.216;6.874;2022-07-05T11:05:22;3.13;;;1.20;;
51228;SDS011;37304;52.216;6.874;2022-07-05T11:10:25;3.60;;;1.30;;
51228;SDS011;37304;52.216;6.874;2022-07-05T11:15:26;2.13;;;1.17;;
51228;SDS011;37304;52.216;6.874;2022-07-05T11:20:30;3.65;;;1.30;;
51228;SDS011;37304;52.216;6.874;2022-07-05T11:25:32;6.28;;;1.42;;
51228;SDS011;37304;52.216;6.874;2022-07-05T11:30:44;2.35;;;1.10;;
51228;SDS011;37304;52.216;6.874;2022-07-05T11:35:55;3.03;;;1.35;;
51228;SDS011;37304;52.216;6.874;2022-07-05T11:41:18;2.85;;;1.40;;
51228;SDS011;37304;52.216;6.874;2022-07-05T11:46:17;2.05;;;1.40;;
51228;SDS011;37304;52.216;6.874;2022-07-05T11:51:18;1.73;;;1.20;;
51228;SDS011;37304;52.216;6.874;2022-07-05T11:56:19;2.63;;;1.30;;
51228;SDS011;37304;52.216;6.874;2022-07-05T12:01:19;3.17;;;1.30;;
51228;SDS011;37304;52.216;6.874;2022-07-05T12:06:20;2.28;;;1.40;;
51228;SDS011;37304;52.216;6.874;2022-07-05T12:11:20;1.85;;;1.25;;
51228;SDS011;37304;52.216;6.874;2022-07-05T12:16:39;2.30;;;1.20;;
51228;SDS011;37304;52.216;6.874;2022-07-05T12:21:39;2.33;;;1.10;;
51228;SDS011;37304;52.216;6.874;2022-07-05T12:26:40;2.53;;;1.17;;
51228;SDS011;37304;52.216;6.874;2022-07-05T12:31:42;4.15;;;1.35;;
51228;SDS011;37304;52.216;6.874;2022-07-05T12:36:58;3.35;;;1.33;;
51228;SDS011;37304;52.216;6.874;2022-07-05T12:41:58;1.60;;;1.40;;
51228;SDS011;37304;52.216;6.874;2022-07-05T12:47:03;3.40;;;1.63;;
51228;SDS011;37304;52.216;6.874;2022-07-05T12:52:07;2.15;;;1.70;;
51228;SDS011;37304;52.216;6.874;2022-07-05T12:57:07;2.15;;;1.40;;
51228;SDS011;37304;52.216;6.874;2022-07-05T13:02:40;2.22;;;1.38;;
51228;SDS011;37304;52.216;6.874;2022-07-05T13:07:41;5.55;;;3.05;;
51228;SDS011;37304;52.216;6.874;2022-07-05T13:12:43;3.95;;;1.40;;
51228;SDS011;37304;52.216;6.874;2022-07-05T13:17:44;3.28;;;1.30;;
51228;SDS011;37304;52.216;6.874;2022-07-05T13:22:45;3.45;;;1.38;;
51228;SDS011;37304;52.216;6.874;2022-07-05T13:27:46;2.70;;;1.20;;
51228;SDS011;37304;52.216;6.874;2022-07-05T13:32:47;3.33;;;1.10;;
51228;SDS011;37304;52.216;6.874;2022-07-05T13:37:47;3.78;;;1.10;;
51228;SDS011;37304;52.216;6.874;2022-07-05T13:42:48;5.95;;;1.60;;
51228;SDS011;37304;52.216;6.874;2022-07-05T13:47:48;4.27;;;1.63;;
51228;SDS011;37304;52.216;6.874;2022-07-05T13:52:48;3.22;;;1.30;;
51228;SDS011;37304;52.216;6.874;2022-07-05T13:57:49;2.05;;;1.10;;
51228;SDS011;37304;52.216;6.874;2022-07-05T14:02:49;2.80;;;1.60;;
51228;SDS011;37304;52.216;6.874;2022-07-05T14:07:49;4.85;;;1.30;;
51228;SDS011;37304;52.216;6.874;2022-07-05T14:12:50;3.43;;;1.50;;
51228;SDS011;37304;52.216;6.874;2022-07-05T14:17:50;2.90;;;1.20;;
51228;SDS011;37304;52.216;6.874;2022-07-05T14:22:50;5.07;;;1.20;;
51228;SDS011;37304;52.216;6.874;2022-07-05T14:27:51;3.78;;;1.40;;
51228;SDS011;37304;52.216;6.874;2022-07-05T14:32:51;1.93;;;1.00;;
51228;SDS011;37304;52.216;6.874;2022-07-05T14:37:51;2.70;;;1.10;;
51228;SDS011;37304;52.216;6.874;2022-07-05T14:42:52;3.63;;;1.40;;
51228;SDS011;37304;52.216;6.874;2022-07-05T14:47:53;3.28;;;1.20;;
51228;SDS011;37304;52.216;6.874;2022-07-05T14:52:54;3.88;;;1.30;;
51228;SDS011;37304;52.216;6.874;2022-07-05T14:57:54;4.53;;;1.40;;
51228;SDS011;37304;52.216;6.874;2022-07-05T15:02:54;3.63;;;1.00;;
51228;SDS011;37304;52.216;6.874;2022-07-05T15:07:55;7.15;;;1.30;;
51228;SDS011;37304;52.216;6.874;2022-07-05T15:12:55;2.40;;;1.10;;
51228;SDS011;37304;52.216;6.874;2022-07-05T15:17:56;1.40;;;0.93;;
51228;SDS011;37304;52.216;6.874;2022-07-05T15:22:56;1.60;;;0.75;;
51228;SDS011;37304;52.216;6.874;2022-07-05T15:27:56;2.08;;;0.77;;
51228;SDS011;37304;52.216;6.874;2022-07-05T15:32:57;1.95;;;0.70;;
51228;SDS011;37304;52.216;6.874;2022-07-05T15:37:57;2.42;;;0.95;;
51228;SDS011;37304;52.216;6.874;2022-07-05T15:42:58;2.40;;;1.08;;
51228;SDS011;37304;52.216;6.874;2022-07-05T15:47:59;2.17;;;0.90;;
51228;SDS011;37304;52.216;6.874;2022-07-05T15:52:59;6.13;;;0.85;;
51228;SDS011;37304;52.216;6.874;2022-07-05T15:57:59;3.45;;;1.02;;
51228;SDS011;37304;52.216;6.874;2022-07-05T16:03:00;1.20;;;0.73;;
51228;SDS011;37304;52.216;6.874;2022-07-05T16:08:00;2.33;;;0.80;;
51228;SDS011;37304;52.216;6.874;2022-07-05T16:13:00;2.33;;;1.03;;
51228;SDS011;37304;52.216;6.874;2022-07-05T16:18:01;3.88;;;0.95;;
51228;SDS011;37304;52.216;6.874;2022-07-05T16:23:01;2.72;;;0.90;;
51228;SDS011;37304;52.216;6.874;2022-07-05T16:28:02;4.65;;;0.98;;
51228;SDS011;37304;52.216;6.874;2022-07-05T16:33:04;2.03;;;0.80;;
51228;SDS011;37304;52.216;6.874;2022-07-05T16:38:04;2.75;;;0.80;;
51228;SDS011;37304;52.216;6.874;2022-07-05T16:43:04;2.63;;;1.10;;
51228;SDS011;37304;52.216;6.874;2022-07-05T16:48:04;2.15;;;1.00;;
51228;SDS011;37304;52.216;6.874;2022-07-05T16:53:05;3.20;;;1.08;;
51228;SDS011;37304;52.216;6.874;2022-07-05T16:58:05;3.15;;;1.20;;
51228;SDS011;37304;52.216;6.874;2022-07-05T17:03:06;5.43;;;1.20;;
51228;SDS011;37304;52.216;6.874;2022-07-05T17:08:07;0.82;;;0.80;;
51228;SDS011;37304;52.216;6.874;2022-07-05T17:13:07;1.30;;;0.97;;
51228;SDS011;37304;52.216;6.874;2022-07-05T17:18:07;2.10;;;1.33;;
51228;SDS011;37304;52.216;6.874;2022-07-05T17:23:08;3.67;;;1.42;;
51228;SDS011;37304;52.216;6.874;2022-07-05T17:28:08;2.37;;;1.17;;
51228;SDS011;37304;52.216;6.874;2022-07-05T17:33:08;2.20;;;1.17;;
51228;SDS011;37304;52.216;6.874;2022-07-05T17:38:09;4.13;;;1.10;;
51228;SDS011;37304;52.216;6.874;2022-07-05T17:43:09;1.70;;;0.80;;
51228;SDS011;37304;52.216;6.874;2022-07-05T17:48:09;2.28;;;1.10;;
51228;SDS011;37304;52.216;6.874;2022-07-05T17:53:10;2.22;;;1.10;;
51228;SDS011;37304;52.216;6.874;2022-07-05T17:58:10;2.93;;;1.40;;
51228;SDS011;37304;52.216;6.874;2022-07-05T18:03:10;2.85;;;1.10;;
51228;SDS011;37304;52.216;6.874;2022-07-05T18:08:11;2.47;;;1.10;;
51228;SDS011;37304;52.216;6.874;2022-07-05T18:13:13;4.75;;;1.50;;
51228;SDS011;37304;52.216;6.874;2022-07-05T18:18:14;5.53;;;4.20;;
51228;SDS011;37304;52.216;6.874;2022-07-05T18:23:14;6.32;;;3.85;;
51228;SDS011;37304;52.216;6.874;2022-07-05T18:28:15;7.97;;;4.30;;
51228;SDS011;37304;52.216;6.874;2022-07-05T18:33:15;7.25;;;3.70;;
51228;SDS011;37304;52.216;6.874;2022-07-05T18:38:16;3.88;;;1.30;;
51228;SDS011;37304;52.216;6.874;2022-07-05T18:43:16;2.92;;;1.70;;
51228;SDS011;37304;52.216;6.874;2022-07-05T18:48:17;3.70;;;1.58;;
51228;SDS011;37304;52.216;6.874;2022-07-05T18:53:17;4.28;;;1.27;;
51228;SDS011;37304;52.216;6.874;2022-07-05T18:58:17;3.88;;;1.30;;
51228;SDS011;37304;52.216;6.874;2022-07-05T19:03:18;3.40;;;1.30;;
51228;SDS011;37304;52.216;6.874;2022-07-05T19:08:18;2.27;;;1.23;;
51228;SDS011;37304;52.216;6.874;2022-07-05T19:13:37;1.70;;;1.20;;
51228;SDS011;37304;52.216;6.874;2022-07-05T19:18:47;4.38;;;1.30;;
51228;SDS011;37304;52.216;6.874;2022-07-05T19:23:47;2.25;;;1.35;;
51228;SDS011;37304;52.216;6.874;2022-07-05T19:28:47;2.30;;;1.15;;
51228;SDS011;37304;52.216;6.874;2022-07-05T19:33:48;3.63;;;1.33;;
51228;SDS011;37304;52.216;6.874;2022-07-05T19:38:48;3.40;;;1.65;;
51228;SDS011;37304;52.216;6.874;2022-07-05T19:43:49;4.37;;;1.30;;
51228;SDS011;37304;52.216;6.874;2022-07-05T19:48:49;3.63;;;1.30;;
51228;SDS011;37304;52.216;6.874;2022-07-05T19:53:50;3.37;;;1.20;;
51228;SDS011;37304;52.216;6.874;2022-07-05T19:58:50;1.92;;;1.08;;
51228;SDS011;37304;52.216;6.874;2022-07-05T20:03:50;3.00;;;1.10;;
51228;SDS011;37304;52.216;6.874;2022-07-05T20:08:51;3.80;;;1.40;;
51228;SDS011;37304;52.216;6.874;2022-07-05T20:13:51;2.13;;;1.42;;
51228;SDS011;37304;52.216;6.874;2022-07-05T20:18:52;2.15;;;1.30;;
51228;SDS011;37304;52.216;6.874;2022-07-05T20:23:52;2.88;;;1.65;;
51228;SDS011;37304;52.216;6.874;2022-07-05T20:28:53;2.05;;;1.20;;
51228;SDS011;37304;52.216;6.874;2022-07-05T20:33:53;4.00;;;1.38;;
51228;SDS011;37304;52.216;6.874;2022-07-05T20:38:53;3.17;;;1.30;;
51228;SDS011;37304;52.216;6.874;2022-07-05T20:43:54;3.85;;;1.33;;
51228;SDS011;37304;52.216;6.874;2022-07-05T20:48:54;3.77;;;1.27;;
51228;SDS011;37304;52.216;6.874;2022-07-05T20:53:55;3.72;;;1.17;;
51228;SDS011;37304;52.216;6.874;2022-07-05T20:58:55;3.42;;;1.50;;
51228;SDS011;37304;52.216;6.874;2022-07-05T21:03:55;4.07;;;1.50;;
51228;SDS011;37304;52.216;6.874;2022-07-05T21:08:56;2.03;;;1.60;;
51228;SDS011;37304;52.216;6.874;2022-07-05T21:13:56;3.67;;;1.95;;
51228;SDS011;37304;52.216;6.874;2022-07-05T21:18:57;5.47;;;1.50;;
51228;SDS011;37304;52.216;6.874;2022-07-05T21:23:57;9.10;;;2.00;;
51228;SDS011;37304;52.216;6.874;2022-07-05T21:28:58;6.68;;;2.10;;
51228;SDS011;37304;52.216;6.874;2022-07-05T21:33:58;3.53;;;1.85;;
51228;SDS011;37304;52.216;6.874;2022-07-05T21:38:58;4.97;;;1.92;;
51228;SDS011;37304;52.216;6.874;2022-07-05T21:43:59;4.20;;;2.03;;
51228;SDS011;37304;52.216;6.874;2022-07-05T21:49:00;3.53;;;2.00;;
51228;SDS011;37304;52.216;6.874;2022-07-05T21:54:02;3.00;;;1.80;;
51228;SDS011;37304;52.216;6.874;2022-07-05T21:59:02;4.63;;;1.90;;
51228;SDS011;37304;52.216;6.874;2022-07-05T22:04:21;2.60;;;1.90;;
51228;SDS011;37304;52.216;6.874;2022-07-05T22:09:25;3.53;;;1.98;;
51228;SDS011;37304;52.216;6.874;2022-07-05T22:14:27;3.22;;;1.90;;
51228;SDS011;37304;52.216;6.874;2022-07-05T22:19:27;3.90;;;2.00;;
51228;SDS011;37304;52.216;6.874;2022-07-05T22:24:28;5.45;;;2.20;;
51228;SDS011;37304;52.216;6.874;2022-07-05T22:29:28;4.80;;;2.20;;
51228;SDS011;37304;52.216;6.874;2022-07-05T22:34:29;3.45;;;2.20;;
51228;SDS011;37304;52.216;6.874;2022-07-05T22:39:29;4.72;;;2.10;;
51228;SDS011;37304;52.216;6.874;2022-07-05T22:44:30;2.22;;;1.80;;
51228;SDS011;37304;52.216;6.874;2022-07-05T22:49:30;5.60;;;2.03;;
51228;SDS011;37304;52.216;6.874;2022-07-05T22:54:30;6.45;;;2.47;;
51228;SDS011;37304;52.216;6.874;2022-07-05T22:59:31;3.70;;;1.90;;
51228;SDS011;37304;52.216;6.874;2022-07-05T23:04:31;4.93;;;2.20;;
51228;SDS011;37304;52.216;6.874;2022-07-05T23:09:32;3.97;;;2.38;;
51228;SDS011;37304;52.216;6.874;2022-07-05T23:14:32;3.97;;;2.60;;
51228;SDS011;37304;52.216;6.874;2022-07-05T23:19:32;6.32;;;3.30;;
51228;SDS011;37304;52.216;6.874;2022-07-05T23:24:33;4.40;;;2.70;;
51228;SDS011;37304;52.216;6.874;2022-07-05T23:29:51;3.90;;;2.75;;
51228;SDS011;37304;52.216;6.874;2022-07-05T23:34:56;4.45;;;3.22;;
51228;SDS011;37304;52.216;6.874;2022-07-05T23:39:56;5.22;;;2.90;;
51228;SDS011;37304;52.216;6.874;2022-07-05T23:44:56;5.35;;;3.15;;
51228;SDS011;37304;52.216;6.874;2022-07-05T23:49:57;7.20;;;3.42;;
51228;SDS011;37304;52.216;6.874;2022-07-05T23:54:57;4.25;;;3.20;;
51228;SDS011;37304;52.216;6.874;2022-07-05T23:59:58;4.80;;;3.40;;
